createdAt,value
2022-07-28T00:02:49.872Z,107.82979
2022-07-28T00:07:50.849Z,107.82979
2022-07-28T00:12:51.766Z,107.39523
2022-07-28T00:17:52.700Z,106.96296
2022-07-28T00:22:53.641Z,106.96296
2022-07-28T00:33:00.128Z,106.10526
2022-07-28T00:43:01.646Z,106.10526
2022-07-28T00:48:02.540Z,106.96296
2022-07-28T00:53:03.491Z,106.96296
2022-07-28T00:58:05.722Z,107.39523
2022-07-28T01:03:06.697Z,107.82979
2022-07-28T01:08:07.707Z,108.26667
2022-07-28T01:13:08.664Z,108.26667
2022-07-28T01:18:09.587Z,108.70588
2022-07-28T01:23:10.496Z,108.70588
2022-07-28T01:28:11.537Z,108.70588
2022-07-28T01:33:12.587Z,108.70588
2022-07-28T01:38:13.551Z,108.70588
2022-07-28T01:43:14.443Z,108.70588
2022-07-28T01:48:15.394Z,108.26667
2022-07-28T01:53:16.339Z,108.70588
2022-07-28T01:58:17.321Z,108.70588
2022-07-28T02:03:18.235Z,108.70588
2022-07-28T02:08:19.148Z,108.70588
2022-07-28T02:13:20.080Z,108.70588
2022-07-28T02:18:21.033Z,108.70588
2022-07-28T02:23:22.014Z,109.14745
2022-07-28T02:28:22.997Z,109.14745
2022-07-28T02:33:29.574Z,109.14745
2022-07-28T02:39:00.106Z,109.14745
2022-07-28T02:44:01.075Z,109.14745
2022-07-28T02:49:02.241Z,109.14745
2022-07-28T02:54:03.252Z,109.14745
2022-07-28T02:59:04.157Z,109.14745
2022-07-28T03:04:05.081Z,109.14745
2022-07-28T03:09:05.987Z,109.14745
2022-07-28T03:14:08.562Z,108.70588
2022-07-28T03:19:09.508Z,108.26667
2022-07-28T03:24:10.749Z,107.82979
2022-07-28T03:29:11.857Z,107.82979
2022-07-28T03:34:13.079Z,107.39523
2022-07-28T03:39:14.226Z,107.39523
2022-07-28T03:44:15.502Z,107.39523
2022-07-28T03:49:29.713Z,106.96296
2022-07-28T03:54:30.636Z,106.96296
2022-07-28T03:59:31.560Z,106.96296
2022-07-28T04:04:32.508Z,106.96296
2022-07-28T04:09:33.416Z,106.10526
2022-07-28T04:14:34.641Z,105.67979
2022-07-28T04:19:35.586Z,105.25654
2022-07-28T04:24:36.860Z,104.83551
2022-07-28T04:29:37.786Z,104.41667
2022-07-28T04:34:39.559Z,104.0
2022-07-28T04:39:40.477Z,103.58549
2022-07-28T04:44:41.401Z,103.17313
2022-07-28T04:49:42.344Z,102.76289
2022-07-28T04:54:43.260Z,101.94872
2022-07-28T04:59:44.209Z,101.54476
2022-07-28T05:04:49.364Z,100.743
2022-07-28T05:09:50.376Z,100.34518
2022-07-28T05:14:51.264Z,99.55556
2022-07-28T05:19:52.417Z,99.55556
2022-07-28T05:24:53.345Z,99.55556
2022-07-28T05:29:54.262Z,99.16373
2022-07-28T05:34:55.217Z,99.55556
2022-07-28T05:39:56.118Z,99.55556
2022-07-28T05:44:57.043Z,99.94937
2022-07-28T05:49:57.975Z,100.34518
2022-07-28T05:54:58.922Z,99.55556
2022-07-28T05:59:59.837Z,98.38596
2022-07-28T06:05:00.703Z,98.38596
2022-07-28T06:10:01.867Z,99.94937
2022-07-28T06:15:03.399Z,100.743
2022-07-28T06:20:04.917Z,100.743
2022-07-28T06:25:05.871Z,100.34518
2022-07-28T06:30:06.811Z,100.743
2022-07-28T06:35:07.728Z,101.14286
2022-07-28T06:40:08.678Z,102.35476
2022-07-28T06:45:09.701Z,104.83551
2022-07-28T06:50:24.694Z,103.17313
2022-07-28T06:55:34.599Z,104.0
2022-07-28T07:00:36.752Z,105.25654
2022-07-28T07:05:37.726Z,104.0
2022-07-28T07:10:38.632Z,102.35476
2022-07-28T07:15:39.558Z,101.54476
2022-07-28T07:20:40.530Z,104.0
2022-07-28T07:25:41.458Z,101.94872
2022-07-28T07:30:42.696Z,100.743
2022-07-28T07:35:43.630Z,103.17313
2022-07-28T07:40:44.551Z,104.83551
2022-07-28T07:45:45.479Z,103.17313
2022-07-28T07:50:50.467Z,104.41667
2022-07-28T07:55:54.403Z,104.41667
2022-07-28T08:00:55.314Z,102.76289
2022-07-28T08:05:56.293Z,102.35476
2022-07-28T08:10:58.445Z,105.25654
2022-07-28T08:15:59.733Z,101.54476
2022-07-28T08:21:00.734Z,100.34518
2022-07-28T08:26:06.769Z,98.77387
2022-07-28T08:31:07.895Z,100.34518
2022-07-28T08:36:09.402Z,100.743
2022-07-28T08:41:10.681Z,100.34518
2022-07-28T08:46:12.011Z,104.0
2022-07-28T08:51:13.058Z,102.35476
2022-07-28T08:56:14.015Z,100.743
2022-07-28T09:01:20.074Z,98.77387
2022-07-28T09:06:21.093Z,99.55556
2022-07-28T09:11:24.753Z,102.76289
2022-07-28T09:16:25.740Z,99.94937
2022-07-28T09:21:26.777Z,98.0
2022-07-28T09:26:27.823Z,103.17313
2022-07-28T09:31:28.853Z,100.34518
2022-07-28T09:36:30.211Z,98.38596
2022-07-28T09:41:31.249Z,96.47525
2022-07-28T09:46:32.850Z,96.8536
2022-07-28T09:51:33.999Z,100.34518
2022-07-28T09:56:35.447Z,103.17313
2022-07-28T10:01:37.172Z,102.35476
2022-07-28T10:06:38.380Z,99.94937
2022-07-28T10:11:41.700Z,99.16373
2022-07-28T10:16:42.935Z,100.34518
2022-07-28T10:21:43.930Z,101.14286
2022-07-28T10:26:44.855Z,101.94872
2022-07-28T10:31:45.779Z,102.35476
2022-07-28T10:36:46.739Z,101.14286
2022-07-28T10:41:47.685Z,101.54476
2022-07-28T10:46:48.644Z,103.17313
2022-07-28T10:52:06.381Z,100.34518
2022-07-28T10:57:10.037Z,102.35476
2022-07-28T11:02:11.104Z,106.53298
2022-07-28T11:07:12.718Z,111.3913
2022-07-28T11:12:13.658Z,105.67979
2022-07-28T11:17:14.962Z,107.82979
2022-07-28T11:22:15.964Z,108.70588
2022-07-28T11:27:19.724Z,117.52113
2022-07-28T11:32:20.658Z,113.23077
2022-07-28T11:37:28.142Z,115.11111
2022-07-28T11:42:29.355Z,114.63712
2022-07-28T11:52:32.384Z,103.17313
2022-07-28T12:02:33.906Z,112.76712
2022-07-28T12:07:36.806Z,106.96296
2022-07-28T12:12:37.719Z,104.83551
2022-07-28T12:17:38.648Z,102.35476
2022-07-28T12:22:41.836Z,103.58549
2022-07-28T12:27:45.815Z,113.23077
2022-07-28T12:32:47.024Z,106.10526
2022-07-28T12:37:47.940Z,104.41667
2022-07-28T12:42:52.019Z,105.25654
2022-07-28T12:47:54.663Z,104.41667
2022-07-28T12:52:55.672Z,99.16373
2022-07-28T12:57:56.612Z,99.94937
2022-07-28T13:02:57.591Z,94.61125
2022-07-28T13:07:58.929Z,92.07692
2022-07-28T13:13:02.907Z,96.8536
2022-07-28T13:18:03.866Z,97.61596
2022-07-28T13:23:04.808Z,96.8536
2022-07-28T13:28:06.440Z,93.87835
2022-07-28T13:33:11.966Z,94.98039
2022-07-28T13:38:14.985Z,98.38596
2022-07-28T13:43:15.934Z,100.34518
2022-07-28T13:48:16.984Z,95.72414
2022-07-28T13:53:17.946Z,97.23383
2022-07-28T13:58:19.430Z,93.15254
2022-07-28T14:03:26.325Z,92.79227
2022-07-28T14:08:27.270Z,93.87835
2022-07-28T14:13:28.228Z,94.61125
2022-07-28T14:18:32.753Z,98.77387
2022-07-28T14:23:33.705Z,103.58549
2022-07-28T14:28:34.815Z,101.94872
2022-07-28T14:33:35.727Z,96.8536
2022-07-28T14:38:52.281Z,94.61125
2022-07-28T14:43:54.268Z,94.2439
2022-07-28T14:48:55.195Z,95.72414
2022-07-28T14:53:56.174Z,93.51456
2022-07-28T14:58:57.205Z,93.15254
2022-07-28T15:03:58.202Z,94.2439
2022-07-28T15:08:59.241Z,97.61596
2022-07-28T15:14:00.291Z,93.51456
2022-07-28T15:19:01.421Z,93.87835
2022-07-28T15:24:02.557Z,96.09877
2022-07-28T15:29:03.720Z,93.87835
2022-07-28T15:34:04.823Z,97.61596
2022-07-28T15:39:08.005Z,99.16373
2022-07-28T15:44:10.252Z,96.09877
2022-07-28T15:49:11.222Z,94.2439
2022-07-28T15:54:12.476Z,94.98039
2022-07-28T15:59:13.680Z,99.55556
2022-07-28T16:04:14.864Z,97.23383
2022-07-28T16:09:16.020Z,97.23383
2022-07-28T16:14:17.898Z,97.61596
2022-07-28T16:19:38.597Z,101.14286
2022-07-28T16:24:47.485Z,99.16373
2022-07-28T16:29:48.438Z,96.47525
2022-07-28T16:39:52.946Z,96.8536
2022-07-28T16:44:53.910Z,96.8536
2022-07-28T16:49:54.842Z,97.61596
2022-07-28T16:54:55.786Z,98.0
2022-07-28T16:59:56.757Z,102.76289
2022-07-28T17:04:57.787Z,103.17313
2022-07-28T17:09:58.772Z,101.14286
2022-07-28T17:14:59.727Z,99.94937
2022-07-28T17:20:00.730Z,101.14286
2022-07-28T17:25:02.275Z,100.743
2022-07-28T17:35:03.662Z,101.14286
2022-07-28T17:40:04.930Z,101.94872
2022-07-28T17:45:05.915Z,100.743
2022-07-28T17:50:06.876Z,100.743
2022-07-28T17:55:07.877Z,101.54476
2022-07-28T18:00:08.889Z,102.35476
2022-07-28T18:05:10.046Z,101.54476
2022-07-28T18:10:12.197Z,101.54476
2022-07-28T18:15:13.264Z,101.54476
2022-07-28T18:20:14.233Z,101.94872
2022-07-28T18:25:15.209Z,101.94872
2022-07-28T18:30:17.010Z,102.35476
2022-07-28T18:35:17.927Z,102.35476
2022-07-28T18:40:18.839Z,100.34518
2022-07-28T18:45:19.792Z,100.34518
2022-07-28T18:50:29.200Z,100.743
2022-07-28T18:55:32.829Z,101.14286
2022-07-28T19:00:33.824Z,100.743
2022-07-28T19:05:36.701Z,101.14286
2022-07-28T19:10:38.404Z,102.35476
2022-07-28T19:15:39.465Z,102.35476
2022-07-28T19:20:40.444Z,101.94872
2022-07-28T19:25:41.363Z,102.76289
2022-07-28T19:30:42.398Z,103.17313
2022-07-28T19:35:43.389Z,102.35476
2022-07-28T19:40:44.304Z,102.35476
2022-07-28T19:45:45.343Z,102.76289
2022-07-28T19:50:50.086Z,103.17313
2022-07-28T19:55:52.268Z,104.0
2022-07-28T20:00:54.415Z,104.0
2022-07-28T20:11:00.233Z,104.0
2022-07-28T20:16:01.167Z,104.0
2022-07-28T20:21:02.152Z,104.0
2022-07-28T20:26:08.155Z,104.41667
2022-07-28T20:31:14.931Z,103.58549
2022-07-28T20:36:17.850Z,103.58549
2022-07-28T20:41:18.769Z,103.58549
2022-07-28T20:46:19.837Z,104.0
2022-07-28T20:51:20.783Z,104.0
2022-07-28T20:56:21.712Z,104.41667
2022-07-28T21:01:23.033Z,104.41667
2022-07-28T21:06:24.009Z,104.41667
2022-07-28T21:11:25.559Z,104.83551
2022-07-28T21:16:26.530Z,104.83551
2022-07-28T21:21:27.467Z,104.83551
2022-07-28T21:26:28.401Z,104.83551
2022-07-28T21:31:29.333Z,104.83551
2022-07-28T21:36:30.651Z,104.83551
2022-07-28T21:46:32.015Z,102.35476
2022-07-28T21:51:32.960Z,101.94872
2022-07-28T22:01:34.501Z,101.14286
2022-07-28T22:06:35.572Z,101.54476
2022-07-28T22:11:36.565Z,101.94872
2022-07-28T22:16:39.321Z,101.94872
2022-07-28T22:21:40.348Z,102.35476
2022-07-28T22:36:42.293Z,102.76289
2022-07-28T22:52:24.213Z,102.35476
2022-07-28T22:57:25.394Z,103.58549
2022-07-28T23:02:26.385Z,104.0
2022-07-28T23:07:50.778Z,105.25654
2022-07-28T23:12:56.173Z,105.25654
2022-07-28T23:22:58.790Z,104.83551
2022-07-28T23:27:59.702Z,104.83551
2022-07-28T23:38:01.283Z,105.25654
2022-07-28T23:43:02.557Z,106.10526
2022-07-28T23:48:03.580Z,106.53298
2022-07-28T23:53:04.597Z,106.96296
2022-07-28T23:58:05.855Z,107.39523
